createdAt,value
2022-10-22T00:00:13.041Z,13.53
2022-10-22T00:02:40.209Z,12.57
2022-10-22T00:05:07.132Z,11.30
2022-10-22T00:07:33.885Z,11.10
2022-10-22T00:10:00.515Z,12.10
2022-10-22T00:12:27.777Z,11.90
2022-10-22T00:14:54.505Z,11.40
2022-10-22T00:17:21.330Z,11.43
2022-10-22T00:19:47.961Z,11.03
2022-10-22T00:22:14.599Z,10.70
2022-10-22T00:24:41.517Z,10.73
2022-10-22T00:27:10.386Z,11.50
2022-10-22T00:29:37.098Z,11.83
2022-10-22T00:32:05.212Z,11.63
2022-10-22T00:34:31.862Z,10.77
2022-10-22T00:36:58.678Z,13.93
2022-10-22T00:39:27.116Z,11.23
2022-10-22T00:41:56.304Z,11.33
2022-10-22T00:45:03.621Z,11.10
2022-10-22T00:47:39.250Z,10.80
2022-10-22T00:50:09.710Z,10.80
2022-10-22T00:52:36.830Z,10.80
2022-10-22T00:55:04.454Z,10.83
2022-10-22T00:57:31.663Z,11.90
2022-10-22T00:59:58.638Z,12.07
2022-10-22T01:02:25.314Z,11.27
2022-10-22T01:04:51.994Z,11.50
2022-10-22T01:07:22.115Z,11.60
2022-10-22T01:10:13.637Z,12.10
2022-10-22T01:12:46.302Z,11.33
2022-10-22T01:15:33.629Z,11.73
2022-10-22T01:18:10.815Z,11.47
2022-10-22T01:21:15.269Z,12.63
2022-10-22T01:24:19.527Z,13.60
2022-10-22T01:26:46.075Z,12.07
2022-10-22T01:29:15.670Z,12.67
2022-10-22T01:31:46.717Z,12.80
2022-10-22T01:34:17.418Z,12.40
2022-10-22T01:36:46.566Z,12.73
2022-10-22T01:39:15.466Z,12.90
2022-10-22T01:41:45.413Z,10.90
2022-10-22T01:47:07.458Z,11.80
2022-10-22T01:49:54.115Z,10.80
2022-10-22T01:52:47.589Z,12.70
2022-10-22T01:55:53.070Z,11.40
2022-10-22T01:58:55.243Z,10.83
2022-10-22T02:01:40.959Z,10.57
2022-10-22T02:04:35.372Z,10.30
2022-10-22T02:07:06.473Z,11.87
2022-10-22T02:09:35.412Z,11.43
2022-10-22T02:12:07.833Z,12.00
2022-10-22T02:14:37.099Z,12.20
2022-10-22T02:17:07.690Z,10.77
2022-10-22T02:19:41.709Z,10.63
2022-10-22T02:22:08.733Z,12.67
2022-10-22T02:24:35.851Z,12.97
2022-10-22T02:27:24.294Z,12.17
2022-10-22T02:30:08.490Z,11.53
2022-10-22T02:32:43.597Z,12.70
2022-10-22T02:35:13.955Z,15.70
2022-10-22T02:37:41.310Z,18.00
2022-10-22T02:40:08.984Z,18.47
2022-10-22T02:42:38.027Z,14.70
2022-10-22T02:45:05.446Z,19.40
2022-10-22T02:47:32.090Z,19.07
2022-10-22T02:49:58.723Z,16.17
2022-10-22T02:52:25.897Z,16.00
2022-10-22T02:54:52.498Z,15.50
2022-10-22T02:57:19.083Z,14.10
2022-10-22T02:59:45.726Z,12.83
2022-10-22T03:02:12.328Z,14.20
2022-10-22T03:04:40.363Z,13.60
2022-10-22T03:07:07.019Z,14.53
2022-10-22T03:09:33.627Z,14.83
2022-10-22T03:12:00.302Z,14.57
2022-10-22T03:14:26.944Z,14.67
2022-10-22T03:16:53.581Z,14.33
2022-10-22T03:19:20.209Z,14.07
2022-10-22T03:22:03.146Z,13.93
2022-10-22T03:24:39.898Z,13.37
2022-10-22T03:27:06.613Z,13.17
2022-10-22T03:29:37.215Z,13.70
2022-10-22T03:32:03.956Z,14.37
2022-10-22T03:34:30.626Z,12.47
2022-10-22T03:37:00.383Z,14.40
2022-10-22T03:39:28.980Z,13.00
2022-10-22T03:41:56.015Z,12.93
2022-10-22T03:44:23.738Z,13.87
2022-10-22T03:46:51.122Z,12.83
2022-10-22T03:49:17.723Z,11.60
2022-10-22T03:51:44.477Z,12.97
2022-10-22T03:54:11.103Z,11.70
2022-10-22T03:56:37.743Z,12.57
2022-10-22T03:59:04.733Z,13.00
2022-10-22T04:01:31.705Z,13.33
2022-10-22T04:03:59.071Z,12.20
2022-10-22T04:06:25.735Z,12.20
2022-10-22T04:08:52.705Z,13.97
2022-10-22T04:11:19.393Z,12.83
2022-10-22T04:13:46.040Z,12.70
2022-10-22T04:16:18.358Z,13.30
2022-10-22T04:18:47.475Z,13.00
2022-10-22T04:21:16.142Z,12.03
2022-10-22T04:23:47.352Z,12.37
2022-10-22T04:26:14.586Z,11.97
2022-10-22T04:28:41.753Z,12.70
2022-10-22T04:31:14.095Z,13.60
2022-10-22T04:33:42.202Z,12.77
2022-10-22T04:36:27.604Z,12.33
2022-10-22T04:38:57.011Z,13.40
2022-10-22T04:41:29.153Z,12.97
2022-10-22T04:43:56.838Z,11.83
2022-10-22T04:46:25.733Z,12.30
2022-10-22T04:48:53.050Z,12.23
2022-10-22T04:51:22.366Z,12.53
2022-10-22T04:53:49.627Z,12.70
2022-10-22T04:56:20.842Z,13.00
2022-10-22T04:58:49.084Z,13.70
2022-10-22T05:01:26.376Z,12.63
2022-10-22T05:03:55.911Z,12.27
2022-10-22T05:06:23.589Z,12.43
2022-10-22T05:09:02.362Z,14.10
2022-10-22T05:11:31.797Z,14.63
2022-10-22T05:13:59.868Z,14.07
2022-10-22T05:16:29.180Z,13.60
2022-10-22T05:18:57.852Z,12.83
2022-10-22T05:21:24.573Z,12.50
2022-10-22T05:23:51.719Z,14.37
2022-10-22T05:26:21.024Z,13.60
2022-10-22T05:28:49.916Z,12.13
2022-10-22T05:31:17.407Z,12.40
2022-10-22T05:33:44.958Z,12.90
2022-10-22T05:36:14.794Z,13.27
2022-10-22T05:38:41.610Z,13.87
2022-10-22T05:41:14.071Z,19.50
2022-10-22T05:43:41.100Z,21.23
2022-10-22T05:46:13.379Z,20.53
2022-10-22T05:48:40.226Z,19.80
2022-10-22T05:51:09.517Z,15.60
2022-10-22T05:53:38.910Z,18.17
2022-10-22T05:56:08.396Z,16.90
2022-10-22T05:58:36.340Z,18.43
2022-10-22T06:01:08.811Z,17.87
2022-10-22T06:03:35.574Z,18.33
2022-10-22T06:06:24.887Z,19.50
2022-10-22T06:08:53.673Z,18.60
2022-10-22T06:11:22.521Z,17.43
2022-10-22T06:13:50.598Z,16.17
2022-10-22T06:16:17.394Z,17.73
2022-10-22T06:18:43.963Z,17.23
2022-10-22T06:21:13.083Z,18.17
2022-10-22T06:23:40.707Z,15.70
2022-10-22T06:26:08.355Z,15.50
2022-10-22T06:28:35.739Z,16.23
2022-10-22T06:31:03.622Z,17.17
2022-10-22T06:33:32.217Z,15.00
2022-10-22T06:36:25.161Z,15.43
2022-10-22T06:38:53.653Z,16.07
2022-10-22T06:41:23.072Z,15.87
2022-10-22T06:43:53.921Z,14.70
2022-10-22T06:46:21.802Z,14.57
2022-10-22T06:48:50.774Z,12.23
2022-10-22T06:51:18.190Z,13.73
2022-10-22T06:53:45.213Z,14.60
2022-10-22T06:56:14.848Z,14.57
2022-10-22T06:58:41.614Z,15.17
2022-10-22T07:01:12.216Z,8.93
2022-10-22T07:03:40.119Z,12.43
2022-10-22T07:06:09.204Z,11.53
2022-10-22T07:08:36.853Z,13.17
2022-10-22T07:11:13.988Z,10.83
2022-10-22T07:13:41.077Z,11.30
2022-10-22T07:16:08.236Z,12.07
2022-10-22T07:18:36.403Z,11.00
2022-10-22T07:21:03.107Z,11.60
2022-10-22T07:23:30.229Z,11.20
2022-10-22T07:25:57.832Z,12.97
2022-10-22T07:28:24.879Z,11.13
2022-10-22T07:30:51.585Z,12.00
2022-10-22T07:33:18.245Z,11.13
2022-10-22T07:35:44.917Z,11.70
2022-10-22T07:38:11.551Z,10.90
2022-10-22T07:40:38.306Z,11.53
2022-10-22T07:43:04.979Z,10.23
2022-10-22T07:45:31.940Z,10.60
2022-10-22T07:47:59.618Z,11.93
2022-10-22T07:50:26.951Z,10.63
2022-10-22T07:52:56.018Z,9.67
2022-10-22T07:55:24.226Z,8.03
2022-10-22T07:57:50.879Z,8.00
2022-10-22T08:00:20.481Z,7.93
2022-10-22T08:02:49.761Z,8.00
2022-10-22T08:05:16.622Z,5.80
2022-10-22T08:07:43.322Z,5.10
2022-10-22T08:10:10.833Z,4.60
2022-10-22T08:12:38.707Z,5.83
2022-10-22T08:15:06.487Z,4.27
2022-10-22T08:17:33.122Z,3.43
2022-10-22T08:20:02.754Z,3.80
2022-10-22T08:22:29.432Z,5.53
2022-10-22T08:24:56.105Z,4.57
2022-10-22T08:27:22.766Z,3.20
2022-10-22T08:29:49.435Z,2.73
2022-10-22T08:32:16.106Z,2.50
2022-10-22T08:34:42.803Z,2.60
2022-10-22T08:37:10.526Z,2.30
2022-10-22T08:39:37.219Z,2.80
2022-10-22T08:42:36.580Z,2.27
2022-10-22T08:45:03.114Z,2.80
2022-10-22T08:47:35.631Z,2.70
2022-10-22T08:50:02.481Z,2.90
2022-10-22T08:52:32.957Z,3.10
2022-10-22T08:55:02.314Z,2.97
2022-10-22T08:57:55.637Z,2.50
2022-10-22T09:00:36.571Z,2.67
2022-10-22T09:03:06.265Z,3.40
2022-10-22T09:06:13.573Z,3.40
2022-10-22T09:08:43.195Z,2.90
2022-10-22T09:11:12.843Z,2.40
2022-10-22T09:13:45.284Z,2.43
2022-10-22T09:16:30.796Z,2.90
2022-10-22T09:19:05.917Z,2.50
2022-10-22T09:22:09.792Z,2.33
2022-10-22T09:25:01.077Z,2.30
2022-10-22T09:27:30.118Z,2.47
2022-10-22T09:29:57.292Z,1.73
2022-10-22T09:32:25.351Z,2.20
2022-10-22T09:34:56.587Z,1.33
2022-10-22T09:37:27.648Z,4.13
2022-10-22T09:39:56.484Z,2.10
2022-10-22T09:42:23.751Z,1.57
2022-10-22T09:44:57.639Z,1.63
2022-10-22T09:47:43.245Z,1.43
2022-10-22T09:50:47.695Z,1.50
2022-10-22T09:53:18.581Z,1.67
2022-10-22T09:55:51.301Z,1.70
2022-10-22T09:58:18.883Z,1.47
2022-10-22T10:00:51.522Z,1.70
2022-10-22T10:03:22.501Z,1.80
2022-10-22T10:05:52.594Z,1.40
2022-10-22T10:08:19.258Z,1.70
2022-10-22T10:10:53.682Z,1.77
2022-10-22T10:13:35.652Z,1.60
2022-10-22T10:16:07.480Z,1.83
2022-10-22T10:18:57.150Z,1.70
2022-10-22T10:22:02.397Z,1.50
2022-10-22T10:24:32.115Z,2.03
2022-10-22T10:27:05.980Z,1.60
2022-10-22T10:30:04.153Z,1.40
2022-10-22T10:32:55.292Z,1.33
2022-10-22T10:35:27.950Z,1.70
2022-10-22T10:38:16.427Z,1.40
2022-10-22T10:40:55.694Z,1.30
2022-10-22T10:43:24.970Z,1.00
2022-10-22T10:46:04.400Z,1.00
2022-10-22T10:48:48.763Z,1.30
2022-10-22T10:51:24.757Z,1.60
2022-10-22T10:54:07.781Z,1.40
2022-10-22T10:56:45.408Z,1.30
2022-10-22T10:59:36.876Z,1.23
2022-10-22T11:02:22.414Z,1.17
2022-10-22T11:05:12.142Z,1.70
2022-10-22T11:08:02.044Z,1.40
2022-10-22T11:10:40.869Z,1.27
2022-10-22T11:13:39.235Z,1.10
2022-10-22T11:16:32.443Z,1.17
2022-10-22T11:19:06.031Z,1.00
2022-10-22T11:21:49.757Z,1.13
2022-10-22T11:24:43.385Z,2.30
2022-10-22T11:27:19.097Z,1.17
2022-10-22T11:29:52.286Z,1.20
2022-10-22T11:32:22.218Z,1.67
2022-10-22T11:34:54.329Z,1.43
2022-10-22T11:37:24.802Z,1.50
2022-10-22T11:39:54.091Z,1.93
2022-10-22T11:42:33.527Z,1.60
2022-10-22T11:45:06.278Z,1.30
2022-10-22T11:47:54.654Z,1.53
2022-10-22T11:50:43.155Z,1.00
2022-10-22T11:53:12.768Z,1.33
2022-10-22T11:55:51.734Z,0.83
2022-10-22T11:58:29.719Z,1.50
2022-10-22T12:00:57.813Z,1.07
2022-10-22T12:03:33.688Z,1.10
2022-10-22T12:06:12.763Z,1.40
2022-10-22T12:08:50.310Z,1.50
2022-10-22T12:11:23.916Z,1.30
2022-10-22T12:14:32.702Z,1.33
2022-10-22T12:17:10.989Z,13.33
2022-10-22T12:19:44.758Z,2.10
2022-10-22T12:22:17.608Z,5.03
2022-10-22T12:24:47.475Z,1.70
2022-10-22T12:27:27.814Z,1.10
2022-10-22T12:29:59.269Z,1.50
2022-10-22T12:32:38.672Z,1.60
2022-10-22T12:35:15.335Z,1.80
2022-10-22T12:37:42.323Z,1.23
2022-10-22T12:40:18.435Z,1.50
2022-10-22T12:42:55.006Z,1.47
2022-10-22T12:45:22.446Z,1.23
2022-10-22T12:47:52.286Z,1.30
2022-10-22T12:50:23.123Z,1.60
2022-10-22T12:52:50.090Z,1.10
2022-10-22T12:55:39.874Z,1.60
2022-10-22T12:58:07.161Z,1.33
2022-10-22T13:00:35.168Z,1.13
2022-10-22T13:03:06.532Z,1.13
2022-10-22T13:05:39.195Z,1.17
2022-10-22T13:08:10.383Z,1.20
2022-10-22T13:10:41.412Z,1.80
2022-10-22T13:13:32.243Z,1.20
2022-10-22T13:16:17.011Z,1.40
2022-10-22T13:18:44.625Z,1.30
2022-10-22T13:21:47.959Z,1.20
2022-10-22T13:24:24.636Z,1.13
2022-10-22T13:26:55.927Z,1.40
2022-10-22T13:29:24.364Z,1.60
2022-10-22T13:31:53.302Z,1.30
2022-10-22T13:34:23.395Z,1.30
2022-10-22T13:36:50.075Z,1.67
2022-10-22T13:39:19.415Z,1.30
2022-10-22T13:41:46.238Z,2.80
2022-10-22T13:44:12.891Z,1.53
2022-10-22T13:46:42.872Z,1.60
2022-10-22T13:49:16.651Z,1.50
2022-10-22T13:51:44.000Z,1.83
2022-10-22T13:54:20.922Z,1.40
2022-10-22T13:56:47.638Z,1.70
2022-10-22T13:59:16.212Z,1.43
2022-10-22T14:01:45.677Z,1.20
2022-10-22T14:04:14.729Z,1.40
2022-10-22T14:06:41.469Z,1.67
2022-10-22T14:09:14.108Z,2.03
2022-10-22T14:11:40.859Z,2.00
2022-10-22T14:14:09.240Z,1.50
2022-10-22T14:16:37.621Z,1.33
2022-10-22T14:19:07.694Z,1.37
2022-10-22T14:21:37.217Z,1.53
2022-10-22T14:24:24.279Z,1.60
2022-10-22T14:26:50.910Z,1.57
2022-10-22T14:29:17.552Z,1.93
2022-10-22T14:31:44.879Z,1.60
2022-10-22T14:34:14.378Z,2.20
2022-10-22T14:36:43.832Z,2.20
2022-10-22T14:39:11.103Z,1.57
2022-10-22T14:41:38.152Z,1.30
2022-10-22T14:44:05.080Z,1.60
2022-10-22T14:46:31.887Z,1.67
2022-10-22T14:48:58.588Z,1.30
2022-10-22T14:51:25.309Z,1.40
2022-10-22T14:53:51.956Z,1.30
2022-10-22T14:56:23.134Z,1.63
2022-10-22T14:58:50.056Z,1.80
2022-10-22T15:01:17.398Z,1.10
2022-10-22T15:03:44.103Z,1.80
2022-10-22T15:06:10.816Z,1.40
2022-10-22T15:08:37.897Z,1.37
2022-10-22T15:11:10.986Z,1.83
2022-10-22T15:13:37.960Z,1.70
2022-10-22T15:16:10.680Z,2.07
2022-10-22T15:18:37.767Z,2.13
2022-10-22T15:21:07.483Z,2.37
2022-10-22T15:23:36.132Z,2.43
2022-10-22T15:26:02.784Z,1.50
2022-10-22T15:28:29.608Z,1.70
2022-10-22T15:30:58.493Z,2.37
2022-10-22T15:33:26.993Z,2.10
2022-10-22T15:35:54.183Z,1.90
2022-10-22T15:38:21.252Z,2.50
2022-10-22T15:40:48.048Z,1.80
2022-10-22T15:43:14.785Z,2.33
2022-10-22T15:45:41.509Z,1.90
2022-10-22T15:48:09.084Z,2.23
2022-10-22T15:50:39.419Z,1.80
2022-10-22T15:53:06.072Z,1.77
2022-10-22T15:55:32.830Z,1.87
2022-10-22T15:58:01.957Z,1.13
2022-10-22T16:00:30.922Z,1.60
2022-10-22T16:02:57.522Z,1.60
2022-10-22T16:05:24.230Z,1.57
2022-10-22T16:07:51.507Z,1.73
2022-10-22T16:10:18.243Z,1.47
2022-10-22T16:12:44.985Z,2.23
2022-10-22T16:15:11.738Z,1.43
2022-10-22T16:17:38.509Z,2.00
2022-10-22T16:20:05.713Z,1.80
2022-10-22T16:22:33.450Z,1.60
2022-10-22T16:25:00.147Z,1.43
2022-10-22T16:27:26.849Z,2.20
2022-10-22T16:29:53.476Z,3.30
2022-10-22T16:32:20.233Z,5.30
2022-10-22T16:34:46.890Z,4.70
2022-10-22T16:37:13.631Z,5.13
2022-10-22T16:39:40.315Z,3.80
2022-10-22T16:42:07.013Z,4.70
2022-10-22T16:44:33.709Z,5.63
2022-10-22T16:47:00.994Z,5.63
2022-10-22T16:49:27.800Z,5.70
2022-10-22T16:51:54.500Z,5.80
2022-10-22T16:54:21.919Z,5.80
2022-10-22T16:56:48.686Z,5.60
2022-10-22T16:59:15.324Z,5.87
2022-10-22T17:01:42.215Z,5.93
2022-10-22T17:04:10.099Z,6.50
2022-10-22T17:06:36.838Z,6.30
2022-10-22T17:09:04.360Z,7.20
2022-10-22T17:11:36.416Z,12.17
2022-10-22T17:14:05.242Z,39.00
2022-10-22T17:16:31.894Z,20.63
2022-10-22T17:18:58.627Z,11.20
2022-10-22T17:21:25.549Z,11.20
2022-10-22T17:23:56.935Z,12.23
2022-10-22T17:26:26.546Z,10.50
2022-10-22T17:28:53.975Z,11.40
2022-10-22T17:31:23.527Z,11.60
2022-10-22T17:33:52.521Z,10.83
2022-10-22T17:36:20.076Z,11.50
2022-10-22T17:38:55.525Z,11.00
2022-10-22T17:41:25.813Z,11.20
2022-10-22T17:43:53.000Z,12.53
2022-10-22T17:46:24.708Z,13.30
2022-10-22T17:48:56.798Z,10.73
2022-10-22T17:51:24.995Z,10.93
2022-10-22T17:53:51.856Z,11.60
2022-10-22T17:56:23.859Z,10.70
2022-10-22T17:58:51.427Z,11.90
2022-10-22T18:01:25.465Z,12.00
2022-10-22T18:03:53.865Z,14.17
2022-10-22T18:06:21.185Z,12.83
2022-10-22T18:08:47.918Z,12.53
2022-10-22T18:11:20.093Z,13.27
2022-10-22T18:13:51.412Z,13.00
2022-10-22T18:16:18.962Z,10.40
2022-10-22T18:18:50.593Z,12.93
2022-10-22T18:21:18.072Z,11.80
2022-10-22T18:23:45.814Z,13.50
2022-10-22T18:26:13.433Z,11.27
2022-10-22T18:28:40.137Z,10.30
2022-10-22T18:31:08.635Z,11.00
2022-10-22T18:33:37.476Z,10.70
2022-10-22T18:36:06.310Z,10.20
2022-10-22T18:38:33.024Z,9.43
2022-10-22T18:41:00.231Z,9.80
2022-10-22T18:43:26.968Z,8.53
2022-10-22T18:45:53.695Z,10.40
2022-10-22T18:48:22.908Z,8.83
2022-10-22T18:50:59.815Z,11.87
2022-10-22T18:53:26.824Z,12.93
2022-10-22T18:55:53.524Z,13.60
2022-10-22T18:58:20.369Z,14.83
2022-10-22T19:00:47.361Z,17.40
2022-10-22T19:03:14.508Z,14.33
2022-10-22T19:05:46.229Z,16.10
2022-10-22T19:08:13.030Z,13.60
2022-10-22T19:10:39.864Z,13.70
2022-10-22T19:13:06.499Z,15.47
2022-10-22T19:15:33.239Z,14.63
2022-10-22T19:17:59.855Z,13.30
2022-10-22T19:20:26.609Z,15.43
2022-10-22T19:22:53.562Z,13.50
2022-10-22T19:25:20.202Z,11.07
2022-10-22T19:27:48.215Z,10.50
2022-10-22T19:30:15.839Z,10.83
2022-10-22T19:32:42.857Z,11.90
2022-10-22T19:35:09.654Z,11.83
2022-10-22T19:37:37.612Z,13.17
2022-10-22T19:40:11.569Z,10.90
2022-10-22T19:42:38.674Z,12.73
2022-10-22T19:45:06.843Z,13.47
2022-10-22T19:47:36.466Z,11.60
2022-10-22T19:50:03.308Z,11.87
2022-10-22T19:52:29.989Z,10.47
2022-10-22T19:54:56.681Z,9.63
2022-10-22T19:57:23.397Z,10.00
2022-10-22T19:59:50.930Z,10.33
2022-10-22T20:02:18.651Z,11.03
2022-10-22T20:04:49.198Z,10.53
2022-10-22T20:07:17.343Z,10.63
2022-10-22T20:09:44.067Z,11.43
2022-10-22T20:12:10.813Z,11.57
2022-10-22T20:14:37.558Z,10.67
2022-10-22T20:17:04.407Z,11.13
2022-10-22T20:19:31.338Z,13.70
2022-10-22T20:24:29.939Z,18.27
2022-10-22T20:26:56.742Z,18.67
2022-10-22T20:29:23.495Z,16.47
2022-10-22T20:31:50.594Z,13.20
2022-10-22T20:34:17.806Z,13.77
2022-10-22T20:36:44.488Z,14.53
2022-10-22T20:39:14.543Z,14.13
2022-10-22T20:41:41.432Z,11.93
2022-10-22T20:44:13.043Z,12.27
2022-10-22T20:46:39.871Z,12.10
2022-10-22T20:49:11.851Z,12.43
2022-10-22T20:51:38.624Z,11.70
2022-10-22T20:54:07.490Z,12.43
2022-10-22T20:56:36.675Z,13.33
2022-10-22T20:59:04.875Z,10.67
2022-10-22T21:01:35.363Z,12.73
2022-10-22T21:04:02.178Z,12.33
2022-10-22T21:06:29.291Z,15.67
2022-10-22T21:08:56.085Z,14.47
2022-10-22T21:11:23.344Z,11.50
2022-10-22T21:14:10.564Z,11.87
2022-10-22T21:16:44.250Z,11.43
2022-10-22T21:19:11.548Z,12.13
2022-10-22T21:21:38.231Z,12.77
2022-10-22T21:24:26.319Z,12.70
2022-10-22T21:26:54.106Z,11.43
2022-10-22T21:29:20.825Z,11.87
2022-10-22T21:31:47.760Z,10.70
2022-10-22T21:34:14.553Z,11.37
2022-10-22T21:36:41.447Z,9.80
2022-10-22T21:39:12.269Z,9.93
2022-10-22T21:41:39.018Z,9.70
2022-10-22T21:44:06.082Z,9.00
2022-10-22T21:46:32.861Z,8.60
2022-10-22T21:49:02.370Z,7.93
2022-10-22T21:51:31.685Z,7.63
2022-10-22T21:53:58.860Z,8.20
2022-10-22T21:56:29.823Z,8.37
2022-10-22T21:58:56.510Z,6.37
2022-10-22T22:01:23.398Z,7.93
2022-10-22T22:03:51.389Z,7.40
2022-10-22T22:06:21.721Z,7.13
2022-10-22T22:08:49.463Z,8.77
2022-10-22T22:11:21.368Z,7.60
2022-10-22T22:13:50.935Z,9.07
2022-10-22T22:16:23.947Z,7.37
2022-10-22T22:18:53.994Z,6.73
2022-10-22T22:21:21.996Z,7.53
2022-10-22T22:23:50.526Z,7.10
2022-10-22T22:26:25.231Z,8.50
2022-10-22T22:28:55.948Z,7.50
2022-10-22T22:31:25.075Z,7.13
2022-10-22T22:33:57.681Z,7.40
2022-10-22T22:36:24.295Z,6.33
2022-10-22T22:38:56.071Z,6.40
2022-10-22T22:41:22.846Z,6.87
2022-10-22T22:43:49.646Z,6.60
2022-10-22T22:46:16.344Z,8.23
2022-10-22T22:48:43.008Z,5.67
2022-10-22T22:51:10.544Z,7.10
2022-10-22T22:53:37.165Z,6.20
2022-10-22T22:56:13.444Z,5.70
2022-10-22T22:58:40.835Z,6.33
2022-10-22T23:01:29.178Z,5.53
2022-10-22T23:03:58.637Z,5.60
2022-10-22T23:06:28.114Z,5.80
2022-10-22T23:08:55.325Z,6.30
2022-10-22T23:11:23.463Z,6.20
2022-10-22T23:13:59.117Z,6.67
2022-10-22T23:16:27.487Z,7.33
2022-10-22T23:18:55.545Z,8.03
2022-10-22T23:21:27.044Z,8.90
2022-10-22T23:23:56.529Z,6.70
2022-10-22T23:26:25.627Z,7.40
2022-10-22T23:28:52.285Z,6.90
2022-10-22T23:31:21.586Z,6.83
2022-10-22T23:33:48.876Z,5.80
2022-10-22T23:36:36.014Z,6.60
2022-10-22T23:39:10.879Z,6.10
2022-10-22T23:41:37.931Z,5.80
2022-10-22T23:44:05.836Z,6.63
2022-10-22T23:46:33.447Z,6.87
2022-10-22T23:49:01.003Z,6.67
2022-10-22T23:51:28.252Z,6.47
2022-10-22T23:53:57.445Z,5.10
2022-10-22T23:56:24.579Z,5.90
2022-10-22T23:58:52.109Z,5.50
